Amelia City, Florida
Current Conditions -  °F | °C
As of 9:55 AM on Saturday 20 Dec 2014 (Local Time) from KFHB Reporting Station
Overcast Overcast  
Wind Chill: 64°   Ceiling: 10000
Heat Index: 64°   Visibility: 10mi
Dew Point: 54°   Wind: 5mph
Humidity: 68%   Direction: 30°NNE
Pressure: 30.15"   Gusts: NA
Location:  30.6056°N, 81.5268°W
Report Text: KFHB 201455Z AUTO 03004KT 10SM OVC100 18/12 A3015 RMK AO1
Loading
Personal Weather Stations






























Interactive Weather Map New forecast layout! Learn more

10-Day Weather Forecast

Advertisements
Track Severe Weather on mobile